ADDS TAF Board (Experimental) INFO

IDs: Format: Expanded Condensed

Updated at: 1331 UTC 24 Oct 2014

KMDW - Chicago/Midway Intl, IL, US

Issued at 1131 UTC 24 Oct 2014
Time1253Z24/14Z24/15Z24/16Z24/17Z24/18Z24/19Z24/20Z24/21Z24/22Z24/23Z25/00Z25/01Z25/02Z
TypeOBSPRVLPRVLPRVLPRVLPRVLPRVLPRVLPRVLPRVLPRVLPRVLPRVLPRVL
VIS10>6>6>6>6>6>6>6>6>6>6>6>6>6
CIG332828250250250250250250250250808080
CoverOVCOVCOVCBKNBKNBKNBKNBKNBKNBKNBKNBKNBKNBKN
FltCat--MVFRMVFRVFRVFRVFRVFRVFRVFRVFRVFRVFRVFRVFR
WX----------------------------
WDir240230230230230230230230230230230190190190
WSpd55577777777444
WGst----------------------------
R04/22
XWnd11111111111-2-2-2
HWnd-5-5-5-7-7-7-7-7-7-7-7-3-3-3
R13/31
XWnd-5-5-5-7-7-7-7-7-7-7-7-3-3-3
HWnd-1-1-1-1-1-1-1-1-1-1-1222
Raw TAF
KMDW 241131Z 2412/2512 23005KT P6SM OVC028
  FM241600 23007KT P6SM SCT025 BKN250
  FM250000 19004KT P6SM BKN080
  FM250300 21005KT 3SM BR BKN015
  FM250600 23004KT 1SM BR SCT005


Raw METAR
KMDW 241253Z 24005KT 10SM OVC033 12/08 A3006 RMK AO2 SLP178 T01220083
KMDW 241236Z 23005KT 10SM OVC033 13/08 A3006 RMK AO2 T01280083

TAF Board Legend

Hazard VFR MVFR IFR LIFR
Visibility (sm) >5 3≤X≤5 1≤X<3 <1
Ceiling (100 ft) >30 10≤X≤30 5≤X<10 <5
Wind Speed (kt) <10 10≤X<20 20≤X<30 ≥30
Wind Gust (kt) <15 15≤X<25 25≤X<35 ≥35
Weather No Wx Reported VCTS,-TS,-FZRA TS,FZRA +TS,+FZRA


Page loaded:  13:31 UTC  |   06:31 AM Pacific  |   07:31 AM Mountain  |   08:31 AM Central  |   09:31 AM Eastern

 

ADVISORIES

FORECASTS

FORECASTS

OBSERVATIONS

USER TOOLS

ABOUT US